Flight Track Log - Related Links

Times and Time Zones

All times are in EDT time to prevent confusion due to time zone crossing. See the AMF1324 flight status page for this flight to view local times or setup timezone preferences in your user account.


Time Position Orientation Groundspeed Altitude Reporting Facility
EDT Latitude Longitude Course Direction KTS MPH feet Rate Location/Type
Tue 06:33:45 AM 42.9500 -78.7167 114° Southeast 113 130 1,300  Level Buffalo TRACON
Tue 06:33:51 AM 42.9500 -78.7167 114° Southeast 117 135 1,400 2,280 Climbing Buffalo TRACON
Tue 06:36:15 AM 42.9392 -78.5714 96° East 180 207 7,000 2,166 Climbing Cleveland Center
Tue 06:37:16 AM 42.9317 -78.4922 97° East 196 226 8,800 1,869 Climbing Cleveland Center
Tue 06:38:17 AM 42.9233 -78.4092 98° East 220 253 10,800 1,721 Climbing Cleveland Center
Tue 06:39:00 AM 42.8103 -78.2182 114° Southeast  Level Estimated
Tue 06:39:18 AM 42.9147 -78.3264 98° East 219 252 12,300  Level Cleveland Center
Tue 06:40:19 AM 42.9056 -78.2350 98° East 248 285 13,000 341 Climbing Cleveland Center
Tue 06:41:21 AM 42.8919 -78.1297 100° East 278 320 13,000  Level Cleveland Center
Tue 06:42:22 AM 42.8719 -78.0211 104° East 294 338 13,000  Level Cleveland Center
Tue 06:43:23 AM 42.8539 -77.9100 102° East 298 343 13,000 49 Level Cleveland Center
Tue 06:44:24 AM 42.8350 -77.7986 103° East 299 344 13,100 49 Climbing Cleveland Center
Tue 06:45:25 AM 42.8150 -77.6869 104° East 300 345 13,100 -49 Level Cleveland Center
Tue 06:46:27 AM 42.7778 -77.5853 116° Southeast 299 344 13,000 -49 Descending Cleveland Center
Tue 06:47:28 AM 42.7400 -77.4828 117° Southeast 299 344 13,000  Level Cleveland Center
Tue 06:48:29 AM 42.7008 -77.3817 118° Southeast 300 345 13,000  Level Cleveland Center
Tue 06:49:30 AM 42.6606 -77.2822 119° Southeast 299 344 13,000  Level Cleveland Center
Tue 06:50:32 AM 42.6186 -77.1847 120° Southeast 299 344 13,000  Level Cleveland Center
Tue 06:51:33 AM 42.5642 -77.0706 123° Southeast 299 344 13,000 -49 Level Cleveland Center
Tue 06:52:34 AM 42.5192 -76.9739 122° Southeast 302 348 12,900 -439 Descending Cleveland Center
Tue 06:53:36 AM 42.4728 -76.8747 122° Southeast 308 354 12,100 -829 Descending Cleveland Center
Tue 06:54:37 AM 42.4256 -76.7761 123° Southeast 310 357 11,200 -1,279 Descending Cleveland Center
Tue 06:55:38 AM 42.3786 -76.6761 122° Southeast 316 364 9,500 -1,561 Descending Cleveland Center
Tue 06:56:40 AM 42.3467 -76.5683 112° Southeast 313 360 8,000 -1,463 Descending Cleveland Center
Tue 06:57:41 AM 42.3272 -76.4647 104° East 293 337 6,500 -1,525 Descending Cleveland Center
Tue 06:58:42 AM 42.3069 -76.3625 105° East 279 321 4,900 -1,171 Descending Cleveland Center
Tue 06:59:44 AM 42.2906 -76.2697 103° East 262 302 4,100 -386 Descending Cleveland Center
Tue 07:01:02 AM 42.2692 -76.1678 106° East 238 274 4,000 -129 Descending New York Center
Tue 07:02:03 AM 42.2706 -76.0922 89° East 215 247 3,800 -500 Descending New York Center
Tue 07:03:02 AM 42.2669 -76.0331 95° East 187 215 3,000 -807 Descending New York Center
Tue 07:04:02 AM 42.2347 -76.0053 147° Southeast 132 152 2,200 -800 Descending New York Center

Login

Don't have an account? Register now (free) for customized features, flight alerts, and more!